Česky Dansk Deutsch English Español Suomi Français Magyar Italiano Nederlands norsk Polski Português svenska Türkçe

 

Het Weer

Dawadmi (Saudi-Arabië)

17:00, 9 maart 2011 (GMT)

NWNNE
WE
SWSSE
Home            
Dawadmi Gassim Riyadh King Khaled International Airport Hafr Al-Batin Hail Wadi Al Dawasser Airport Al Qaysumah Madinah Taif Al Ahsa Bisha Al Baha Rafha Jubail Naval Makkah Dammam-King Fahd International Airport Jeddah King Abdul Aziz International Airport Dhahran Jeddah Kuwait Internationalairport Yenbo Bahrain International Airport

Om een weerknop op uw website of weblog te plaatsen, copieer onderstaande code en plak die in uw pagina. In het eerste vakje staat HTML-code, in het tweede vakje UBB-code.


Add to Google

Details

Wind speed:2 bf, 5 kn, 2.6 m/s, 5.8 miles/h, 9.3 km/h
Wind direction:NNW, 330°
Visibility:Greater than 10000 m, 10 km, 32800 ft, 6.2 miles
Clouds:CAVOC
Temperature:22°C, 72°F
Gefühlte Temperatur:25°C, 77°F
Dew-point:7°C, 45°F
Atmospheric pressure:1016 hPa, 762.1 mmHg, 30.00 inHg, 1.003 atm
Relative humidity:37.9 %
METAR:OEDW 091700Z 33005KT CAVOK 22/07 Q1016 NOSIG

Snelkoppelingen

Actuele weersinformatie van de hele wereld. Voeg locaties toe met het plus (+) symbool. Deze snelkoppelingen kunnen worden toegevoegd aan Google.

Lid van de Technetium groep

website free tracking
StatCounter NetStat W3C Validator

17-04-2021 05:14:13
astro.technetium.be money.technetium.be phote.technetium.be tafeltennistafel.technetium.be www.ligfiets.net